Time;durP1;ratioP1;P1;durP2;ratioP2;P2;SDS_P1;SDS_P2;PMS_P1;PMS_P2;Temp;Humidity;BMP_temperature;BMP_pressure;BME280_temperature;BME280_humidity;BME280_pressure;Samples;Min_cycle;Max_cycle;Signal;HPM_P1;HPM_P2
2021/08/12 00:00:06;;;;;;;5.25;2.97;;;;;;;19.84;nan;100834.28;5051674;28;20043;-75
2021/08/12 00:02:31;;;;;;;5.28;3.13;;;;;;;19.88;nan;100838.22;5051960;28;20413;-75
2021/08/12 00:04:57;;;;;;;4.68;2.95;;;;;;;19.90;nan;100835.31;5047556;28;20034;-75
2021/08/12 00:07:22;;;;;;;5.75;3.20;;;;;;;19.92;nan;100841.28;5052427;28;20054;-76
2021/08/12 00:09:48;;;;;;;6.40;3.20;;;;;;;19.94;nan;100841.91;5053996;28;20037;-76
2021/08/12 00:12:13;;;;;;;4.85;2.92;;;;;;;19.99;nan;100846.66;5053195;28;20449;-75
2021/08/12 00:14:38;;;;;;;5.75;3.17;;;;;;;19.87;nan;100849.97;5053094;28;20436;-75
2021/08/12 00:17:04;;;;;;;4.03;2.67;;;;;;;19.86;nan;100845.63;5052339;28;20151;-76
2021/08/12 00:19:29;;;;;;;4.15;2.78;;;;;;;19.91;nan;100843.16;5051534;28;20025;-75
2021/08/12 00:21:54;;;;;;;4.95;2.83;;;;;;;19.88;nan;100845.44;5052826;28;20048;-76
2021/08/12 00:24:21;;;;;;;4.13;2.70;;;;;;;19.88;nan;100842.75;5053334;28;20152;-76
2021/08/12 00:26:48;;;;;;;4.57;2.90;;;;;;;19.79;nan;100833.25;5052207;28;20061;-75
2021/08/12 00:29:13;;;;;;;3.92;2.85;;;;;;;19.77;nan;100841.50;5053023;28;20032;-75
2021/08/12 00:31:39;;;;;;;7.15;2.78;;;;;;;19.74;nan;100839.22;5052059;28;20043;-75
2021/08/12 00:34:04;;;;;;;4.13;2.80;;;;;;;19.63;nan;100835.25;5052813;28;20127;-75
2021/08/12 00:36:30;;;;;;;4.30;2.90;;;;;;;19.51;nan;100837.69;5053559;28;20068;-76
2021/08/12 00:38:55;;;;;;;4.35;2.88;;;;;;;19.40;nan;100841.00;5053438;28;20033;-75
2021/08/12 00:41:21;;;;;;;3.65;2.63;;;;;;;19.30;nan;100840.53;5052170;28;20033;-76
2021/08/12 00:43:46;;;;;;;3.83;2.50;;;;;;;19.23;nan;100840.50;5053301;28;20401;-75
2021/08/12 00:46:11;;;;;;;5.43;2.90;;;;;;;19.13;nan;100840.06;5052609;28;20409;-75
2021/08/12 00:48:37;;;;;;;3.95;2.80;;;;;;;19.04;nan;100835.91;5053649;28;20037;-76
2021/08/12 00:51:02;;;;;;;4.20;2.78;;;;;;;18.99;nan;100839.16;5052710;28;20033;-75
2021/08/12 00:53:28;;;;;;;3.60;2.45;;;;;;;18.94;nan;100844.31;5054445;28;20102;-75
2021/08/12 00:55:53;;;;;;;3.72;2.35;;;;;;;18.93;nan;100847.22;5052243;28;20468;-76
2021/08/12 00:58:19;;;;;;;3.70;2.65;;;;;;;18.96;nan;100836.91;5052402;28;20523;-75
2021/08/12 01:00:46;;;;;;;4.18;2.65;;;;;;;18.99;nan;100835.66;5053168;28;20405;-76
2021/08/12 01:03:12;;;;;;;4.38;2.95;;;;;;;18.86;nan;100845.31;5052812;28;20041;-76
2021/08/12 01:05:45;;;;;;;5.05;3.20;;;;;;;18.86;nan;100850.66;5052892;28;20166;-75
2021/08/12 01:08:19;;;;;;;3.80;2.55;;;;;;;18.84;nan;100865.28;5036913;28;20036;-76
2021/08/12 01:10:56;;;;;;;3.90;2.17;;;;;;;18.82;nan;100865.47;5038443;28;20059;-76
2021/08/12 01:13:49;;;;;;;5.03;2.42;;;;;;;18.80;nan;100861.34;5051014;28;20041;-75
2021/08/12 01:16:18;;;;;;;3.60;2.33;;;;;;;18.76;nan;100860.03;5051991;28;20055;-75
2021/08/12 01:18:48;;;;;;;3.05;2.25;;;;;;;18.74;nan;100862.94;5052727;28;20029;-75
2021/08/12 01:21:26;;;;;;;3.90;2.83;;;;;;;18.77;nan;100867.94;5051452;28;20109;-76
2021/08/12 01:23:58;;;;;;;3.17;2.20;;;;;;;18.71;nan;100867.84;5053177;28;20029;-75
2021/08/12 01:26:24;;;;;;;4.05;2.72;;;;;;;18.69;nan;100868.06;5051203;28;20048;-76
2021/08/12 01:28:51;;;;;;;4.45;2.70;;;;;;;18.64;nan;100867.84;5050790;28;20043;-75
2021/08/12 01:31:26;;;;;;;4.90;2.85;;;;;;;18.63;nan;100866.16;5052936;28;20115;-75
2021/08/12 01:34:03;;;;;;;3.50;2.40;;;;;;;18.60;nan;100864.69;5052551;28;20041;-76
2021/08/12 01:36:29;;;;;;;3.50;2.50;;;;;;;18.55;nan;100867.16;5052133;28;20037;-75
2021/08/12 01:38:57;;;;;;;3.80;2.83;;;;;;;18.43;nan;100872.22;5052431;28;20044;-75
2021/08/12 01:41:25;;;;;;;4.00;3.05;;;;;;;18.35;nan;100858.97;5052487;28;20029;-75
2021/08/12 01:43:51;;;;;;;3.78;2.70;;;;;;;18.30;nan;100861.38;5053070;28;20445;-75
2021/08/12 01:46:16;;;;;;;4.65;3.17;;;;;;;18.25;nan;100858.47;5052224;28;20048;-75
2021/08/12 01:48:42;;;;;;;4.32;2.97;;;;;;;18.18;nan;100858.41;5053076;28;20028;-76
2021/08/12 01:51:07;;;;;;;4.03;3.05;;;;;;;18.13;nan;100854.66;5051286;28;20041;-75
2021/08/12 01:53:34;;;;;;;4.35;3.10;;;;;;;18.17;nan;100855.94;5053492;28;20033;-76
2021/08/12 01:56:01;;;;;;;4.32;2.78;;;;;;;18.20;nan;100853.69;5052300;28;20060;-75
2021/08/12 01:58:29;;;;;;;3.42;2.50;;;;;;;18.20;nan;100852.88;5050222;28;20061;-76
2021/08/12 02:00:55;;;;;;;5.03;2.75;;;;;;;18.14;nan;100857.16;5050811;28;20040;-75
2021/08/12 02:03:23;;;;;;;3.70;2.60;;;;;;;18.09;nan;100862.28;5052152;28;20048;-76
2021/08/12 02:05:50;;;;;;;4.68;2.60;;;;;;;18.06;nan;100862.63;5052376;28;20060;-75
2021/08/12 02:08:20;;;;;;;4.75;2.92;;;;;;;18.06;nan;100859.16;5055764;28;20389;-75
2021/08/12 02:10:46;;;;;;;4.40;3.00;;;;;;;18.16;nan;100865.84;5055867;28;20446;-76
2021/08/12 02:13:11;;;;;;;4.47;2.80;;;;;;;18.15;nan;100852.63;5055610;28;20392;-75
2021/08/12 02:15:38;;;;;;;3.95;2.30;;;;;;;18.22;nan;100857.00;5054582;28;20063;-75
2021/08/12 02:18:04;;;;;;;3.97;2.67;;;;;;;18.20;nan;100845.66;5055702;28;20056;-76
2021/08/12 02:20:30;;;;;;;3.75;2.47;;;;;;;18.23;nan;100845.31;5055754;28;20029;-76
2021/08/12 02:23:14;;;;;;;4.50;3.08;;;;;;;18.20;nan;100836.81;5055737;28;20116;-75
2021/08/12 02:25:54;;;;;;;4.90;2.80;;;;;;;18.24;nan;100846.94;5054911;28;20090;-75
2021/08/12 02:28:22;;;;;;;4.07;3.00;;;;;;;18.22;nan;100838.28;5054903;28;20056;-76
2021/08/12 02:30:51;;;;;;;4.55;3.00;;;;;;;18.31;nan;100841.66;5055194;28;20072;-75
2021/08/12 02:33:20;;;;;;;4.57;2.90;;;;;;;18.16;nan;100839.06;5054865;28;20120;-75
2021/08/12 02:35:46;;;;;;;4.78;2.90;;;;;;;18.10;nan;100833.66;5054861;28;20033;-75
2021/08/12 02:38:14;;;;;;;4.43;2.85;;;;;;;18.04;nan;100836.09;5055772;28;20059;-75
2021/08/12 02:40:41;;;;;;;4.20;2.78;;;;;;;18.00;nan;100839.34;5055007;28;20115;-75
2021/08/12 02:43:08;;;;;;;6.32;2.75;;;;;;;17.93;nan;100833.13;5051554;28;20522;-77
2021/08/12 02:45:34;;;;;;;3.90;2.67;;;;;;;17.81;nan;100830.94;5055540;28;20033;-76
2021/08/12 02:48:02;;;;;;;4.95;2.88;;;;;;;17.75;nan;100836.19;5053171;28;20040;-76
2021/08/12 02:50:28;;;;;;;4.53;2.80;;;;;;;17.77;nan;100828.81;5052164;28;20119;-75
2021/08/12 02:52:55;;;;;;;4.70;3.00;;;;;;;17.82;nan;100829.91;5056268;28;20128;-76
2021/08/12 02:55:21;;;;;;;5.28;3.13;;;;;;;17.86;nan;100825.03;5056402;28;20031;-75
2021/08/12 02:57:47;;;;;;;6.22;3.17;;;;;;;17.92;nan;100821.56;5054770;28;20041;-75
2021/08/12 03:00:13;;;;;;;4.60;3.03;;;;;;;17.95;nan;100826.53;5053906;28;20033;-75
2021/08/12 03:02:46;;;;;;;4.90;3.10;;;;;;;17.89;nan;100821.94;5055890;28;20040;-75
2021/08/12 03:05:14;;;;;;;5.55;3.00;;;;;;;17.92;nan;100818.06;5055126;28;20025;-75
2021/08/12 03:07:42;;;;;;;5.80;3.30;;;;;;;17.94;nan;100824.06;5055328;28;20037;-76
2021/08/12 03:10:08;;;;;;;7.07;3.20;;;;;;;17.96;nan;100814.81;5054049;28;20029;-75
2021/08/12 03:12:33;;;;;;;4.30;2.80;;;;;;;17.97;nan;100813.81;5054916;28;20375;-75
2021/08/12 03:14:59;;;;;;;4.30;2.35;;;;;;;17.91;nan;100816.41;5055062;28;20040;-76
2021/08/12 03:17:25;;;;;;;5.75;2.55;;;;;;;17.82;nan;100821.06;5054031;28;20029;-76
2021/08/12 03:19:51;;;;;;;3.90;2.75;;;;;;;17.73;nan;100817.69;5053607;28;20033;-76
2021/08/12 03:22:16;;;;;;;4.15;3.15;;;;;;;17.61;nan;100817.38;5054758;28;20125;-76
2021/08/12 03:24:47;;;;;;;4.68;2.83;;;;;;;17.54;nan;100815.63;5055590;28;20029;-75
2021/08/12 03:27:14;;;;;;;5.07;2.93;;;;;;;17.51;nan;100819.50;5055092;28;20033;-75
2021/08/12 03:29:40;;;;;;;2.90;2.20;;;;;;;17.53;nan;100820.16;5056323;28;20062;-75
2021/08/12 03:32:07;;;;;;;5.22;2.50;;;;;;;17.53;nan;100814.78;5052806;28;20502;-76
2021/08/12 03:34:32;;;;;;;3.42;2.67;;;;;;;17.53;nan;100825.50;5055251;28;20409;-76
2021/08/12 03:36:58;;;;;;;3.22;2.30;;;;;;;17.53;nan;100825.50;5060044;28;20033;-76
2021/08/12 03:39:23;;;;;;;3.35;2.50;;;;;;;17.52;nan;100825.66;5060042;28;20040;-76
2021/08/12 03:41:50;;;;;;;3.35;2.40;;;;;;;17.44;nan;100829.31;5053033;28;20513;-76
2021/08/12 03:44:16;;;;;;;4.40;3.17;;;;;;;17.33;nan;100827.97;5053977;28;20128;-76
2021/08/12 03:46:41;;;;;;;3.55;2.60;;;;;;;17.24;nan;100833.63;5053603;28;20071;-76
2021/08/12 03:49:06;;;;;;;4.53;3.40;;;;;;;17.12;nan;100836.75;5052785;28;20040;-75
2021/08/12 03:51:32;;;;;;;5.78;3.47;;;;;;;17.07;nan;100833.81;5054453;28;20033;-75
2021/08/12 03:53:58;;;;;;;4.28;2.78;;;;;;;17.04;nan;100838.69;5054785;28;20052;-75
2021/08/12 03:56:23;;;;;;;5.15;3.25;;;;;;;17.09;nan;100837.16;5052918;28;20067;-75
2021/08/12 03:58:48;;;;;;;4.75;2.72;;;;;;;17.10;nan;100840.63;5053997;28;20048;-75
2021/08/12 04:01:14;;;;;;;4.95;2.88;;;;;;;17.08;nan;100838.16;5055071;28;20037;-75
2021/08/12 04:03:39;;;;;;;3.30;2.38;;;;;;;17.10;nan;100844.13;5053436;28;20127;-75
2021/08/12 04:06:04;;;;;;;5.57;3.00;;;;;;;17.11;nan;100837.78;5052776;28;20071;-74
2021/08/12 04:08:31;;;;;;;3.92;2.78;;;;;;;17.16;nan;100834.53;5053749;28;20051;-76
2021/08/12 04:10:56;;;;;;;3.53;2.60;;;;;;;17.17;nan;100833.53;5052812;28;20064;-75
2021/08/12 04:13:21;;;;;;;4.05;2.83;;;;;;;17.15;nan;100846.25;5054109;28;20044;-75
2021/08/12 04:15:47;;;;;;;3.08;2.20;;;;;;;17.17;nan;100838.88;5048366;28;20029;-75
2021/08/12 04:18:12;;;;;;;2.40;1.67;;;;;;;17.18;nan;100838.69;5050673;28;20410;-75
2021/08/12 04:20:37;;;;;;;3.80;2.65;;;;;;;17.09;nan;100839.81;5054375;28;20501;-75
2021/08/12 04:23:02;;;;;;;4.50;3.10;;;;;;;17.04;nan;100847.56;5053761;28;20037;-75
2021/08/12 04:25:28;;;;;;;5.28;3.53;;;;;;;16.98;nan;100842.97;5052106;28;20386;-75
2021/08/12 04:27:53;;;;;;;3.97;3.15;;;;;;;16.92;nan;100849.03;5052147;28;20060;-76
2021/08/12 04:30:20;;;;;;;4.72;3.15;;;;;;;16.89;nan;100844.06;5051441;28;20033;-75
2021/08/12 04:32:46;;;;;;;5.22;3.40;;;;;;;16.89;nan;100846.72;5053754;28;20032;-75
2021/08/12 04:35:11;;;;;;;4.32;3.40;;;;;;;16.86;nan;100857.81;5052563;28;20139;-76
2021/08/12 04:37:45;;;;;;;4.07;2.80;;;;;;;16.89;nan;100862.75;5052040;28;20063;-75
2021/08/12 04:40:14;;;;;;;4.28;3.15;;;;;;;16.91;nan;100863.41;5051740;28;20421;-75
2021/08/12 04:42:39;;;;;;;3.90;2.88;;;;;;;16.94;nan;100863.03;5052823;28;20033;-75
2021/08/12 04:45:05;;;;;;;3.85;2.70;;;;;;;16.98;nan;100870.50;5053446;28;20037;-75
2021/08/12 04:47:30;;;;;;;4.13;2.90;;;;;;;17.03;nan;100867.28;5051011;28;20029;-75
2021/08/12 04:49:57;;;;;;;4.20;2.78;;;;;;;17.07;nan;100868.56;5053220;28;20148;-75
2021/08/12 04:52:22;;;;;;;4.90;3.30;;;;;;;17.07;nan;100868.56;5053374;28;20049;-75
2021/08/12 04:54:48;;;;;;;4.95;3.35;;;;;;;17.09;nan;100868.34;5053656;28;20029;-75
2021/08/12 04:57:13;;;;;;;4.85;3.10;;;;;;;17.12;nan;100881.38;5054149;28;20048;-75
2021/08/12 04:59:38;;;;;;;4.85;3.08;;;;;;;17.15;nan;100873.78;5054333;28;20484;-75
2021/08/12 05:02:04;;;;;;;5.68;3.78;;;;;;;17.19;nan;100880.44;5047322;28;20040;-75
2021/08/12 05:04:29;;;;;;;4.35;3.17;;;;;;;17.37;nan;100884.53;5053100;28;20120;-75
2021/08/12 05:06:54;;;;;;;6.05;3.28;;;;;;;17.47;nan;100881.56;5045284;28;20446;-76
2021/08/12 05:09:20;;;;;;;6.43;3.20;;;;;;;17.55;nan;100884.13;5051389;28;20032;-76
2021/08/12 05:11:45;;;;;;;5.55;3.30;;;;;;;17.67;nan;100881.78;5051872;28;20039;-76
2021/08/12 05:14:10;;;;;;;5.10;3.00;;;;;;;17.78;nan;100884.81;5044706;28;20061;-76
2021/08/12 05:16:36;;;;;;;5.65;3.20;;;;;;;17.86;nan;100881.19;5052039;28;20108;-75
2021/08/12 05:19:01;;;;;;;4.22;2.80;;;;;;;17.92;nan;100883.09;5034541;28;20040;-75
2021/08/12 05:21:26;;;;;;;6.03;3.17;;;;;;;17.99;nan;100881.31;5033552;28;20064;-76
2021/08/12 05:23:52;;;;;;;4.43;3.10;;;;;;;18.18;nan;100884.34;5050720;28;20124;-75
2021/08/12 05:26:17;;;;;;;6.30;3.77;;;;;;;18.36;nan;100887.41;5050621;28;20478;-75
2021/08/12 05:28:42;;;;;;;5.28;3.53;;;;;;;18.57;nan;100878.50;5052301;28;20275;-75
2021/08/12 05:31:08;;;;;;;5.00;3.45;;;;;;;18.64;nan;100881.22;5053041;28;20553;-75
2021/08/12 05:33:34;;;;;;;5.35;3.30;;;;;;;18.73;nan;100880.03;5047020;28;20061;-75
2021/08/12 05:36:00;;;;;;;5.30;3.28;;;;;;;18.81;nan;100877.22;5035659;28;20029;-75
2021/08/12 05:38:25;;;;;;;4.63;3.00;;;;;;;19.02;nan;100875.47;5050939;28;20554;-75
2021/08/12 05:40:51;;;;;;;4.15;2.78;;;;;;;19.40;nan;100877.69;5053125;28;20051;-76
2021/08/12 05:43:16;;;;;;;6.38;4.05;;;;;;;19.63;nan;100874.66;5050597;28;20057;-75
2021/08/12 05:45:41;;;;;;;7.85;4.07;;;;;;;19.81;nan;100874.13;5050325;28;20116;-75
2021/08/12 05:48:07;;;;;;;7.00;3.85;;;;;;;19.96;nan;100876.63;5049785;28;20190;-75
2021/08/12 05:50:32;;;;;;;5.88;3.50;;;;;;;19.89;nan;100872.06;5051054;28;20097;-74
2021/08/12 05:52:57;;;;;;;4.75;2.92;;;;;;;19.91;nan;100871.88;5049891;28;20040;-74
2021/08/12 05:55:23;;;;;;;4.18;3.10;;;;;;;19.89;nan;100863.19;5050316;28;20033;-74
2021/08/12 05:57:48;;;;;;;5.25;3.25;;;;;;;19.89;nan;100861.31;5050033;28;20036;-75
2021/08/12 06:00:14;;;;;;;3.92;2.70;;;;;;;19.90;nan;100863.00;5048508;28;20509;-75
2021/08/12 06:02:39;;;;;;;3.72;2.60;;;;;;;19.98;nan;100864.66;5050147;28;20060;-75
2021/08/12 06:05:05;;;;;;;4.43;2.70;;;;;;;20.09;nan;100857.81;5050709;28;20508;-74
2021/08/12 06:07:30;;;;;;;5.38;3.60;;;;;;;20.36;nan;100856.78;5049871;28;20075;-74
2021/08/12 06:09:55;;;;;;;5.20;3.38;;;;;;;20.69;nan;100857.78;5050718;28;20037;-74
2021/08/12 06:12:21;;;;;;;4.40;2.78;;;;;;;21.17;nan;100865.50;5050157;28;20064;-75
2021/08/12 06:14:46;;;;;;;6.03;3.03;;;;;;;21.62;nan;100868.19;5050156;28;20112;-75
2021/08/12 06:17:11;;;;;;;4.53;3.00;;;;;;;22.13;nan;100871.78;5050389;28;20414;-74
2021/08/12 06:19:37;;;;;;;4.57;3.10;;;;;;;22.62;nan;100878.19;5050463;28;20093;-75
2021/08/12 06:22:02;;;;;;;4.75;3.00;;;;;;;22.75;nan;100882.63;5050682;28;20047;-74
2021/08/12 06:24:27;;;;;;;5.15;3.03;;;;;;;22.75;nan;100882.63;5050584;28;20033;-74
2021/08/12 06:26:53;;;;;;;4.45;2.80;;;;;;;22.92;nan;100877.47;5050241;28;20090;-75
2021/08/12 06:29:18;;;;;;;4.35;2.60;;;;;;;22.94;nan;100883.47;5050522;28;20037;-75
2021/08/12 06:31:43;;;;;;;;;;;;;;;22.96;nan;100890.28;5051036;28;20052;-75
2021/08/12 06:34:08;;;;;;;4.90;2.97;;;;;;;23.07;nan;100883.31;5049350;28;19979;-74
2021/08/12 06:36:34;;;;;;;5.25;3.30;;;;;;;22.90;nan;100878.50;5049975;28;20071;-75
2021/08/12 06:38:59;;;;;;;6.15;3.83;;;;;;;22.96;nan;100884.88;5050210;28;20120;-74
2021/08/12 06:41:26;;;;;;;5.32;3.58;;;;;;;22.83;nan;100880.44;5050147;28;20056;-75
2021/08/12 06:43:51;;;;;;;;;;;;;;;22.60;nan;100883.00;5050452;28;20033;-75
2021/08/12 06:46:17;;;;;;;6.70;3.70;;;;;;;22.53;nan;100877.66;5049098;28;19923;-75
2021/08/12 06:48:42;;;;;;;;;;;;;;;22.40;nan;100877.78;5050144;28;20029;-75
2021/08/12 06:51:07;;;;;;;5.70;3.33;;;;;;;22.29;nan;100881.22;5048297;28;19916;-75
2021/08/12 06:53:33;;;;;;;5.65;3.30;;;;;;;22.41;nan;100882.94;5052143;28;20307;-74
2021/08/12 06:55:58;;;;;;;4.35;2.95;;;;;;;22.45;nan;100886.88;5052942;28;20043;-75
2021/08/12 06:58:23;;;;;;;4.18;2.65;;;;;;;22.56;nan;100893.38;5052497;28;20032;-75
2021/08/12 07:00:49;;;;;;;4.15;2.83;;;;;;;22.76;nan;100890.47;5052724;28;20052;-75
2021/08/12 07:03:14;;;;;;;3.35;2.47;;;;;;;23.21;nan;100892.06;5052895;28;20307;-75
2021/08/12 07:05:39;;;;;;;3.53;2.67;;;;;;;23.84;nan;100904.34;5052891;28;20040;-75
2021/08/12 07:08:05;;;;;;;4.93;3.23;;;;;;;24.04;nan;100904.84;5052360;28;20041;-75
2021/08/12 07:10:31;;;;;;;5.47;3.72;;;;;;;24.39;nan;100906.78;5052563;28;20282;-75
2021/08/12 07:12:56;;;;;;;6.53;3.30;;;;;;;24.89;nan;100900.09;5052205;28;20088;-75
2021/08/12 07:15:22;;;;;;;4.95;3.08;;;;;;;25.46;nan;100902.06;5051199;28;20025;-75
2021/08/12 07:17:47;;;;;;;6.38;3.25;;;;;;;25.78;nan;100894.28;5052622;28;20043;-75
2021/08/12 07:20:13;;;;;;;4.57;3.10;;;;;;;26.07;nan;100897.78;5052407;28;20116;-75
2021/08/12 07:22:38;;;;;;;3.97;3.00;;;;;;;26.23;nan;100896.97;5053386;28;20029;-75
2021/08/12 07:25:04;;;;;;;4.22;2.97;;;;;;;26.34;nan;100892.53;5054036;28;20040;-75
2021/08/12 07:27:29;;;;;;;3.47;2.67;;;;;;;26.94;nan;100899.13;5051321;28;20405;-75
2021/08/12 07:29:55;;;;;;;3.90;2.83;;;;;;;27.25;nan;100892.19;5050836;28;20390;-75
2021/08/12 07:32:20;;;;;;;;;;;;;;;27.07;nan;100893.28;5052255;28;20033;-75
2021/08/12 07:34:45;;;;;;;;;;;;;;;27.40;nan;100888.81;5052693;28;19917;-75
2021/08/12 07:37:10;;;;;;;4.93;3.00;;;;;;;27.87;nan;100887.41;5051615;28;19917;-75
2021/08/12 07:39:36;;;;;;;;;;;;;;;28.25;nan;100889.06;5051191;28;20044;-75
2021/08/12 07:42:01;;;;;;;;;;;;;;;28.58;nan;100900.75;5051731;28;19917;-75
2021/08/12 07:44:27;;;;;;;;;;;;;;;28.43;nan;100906.06;5052138;28;19925;-75
2021/08/12 07:46:52;;;;;;;;;;;;;;;28.47;nan;100908.03;5052747;28;20044;-75
2021/08/12 07:49:17;;;;;;;;;;;;;;;28.97;nan;100903.94;5052509;28;19916;-75
2021/08/12 07:51:43;;;;;;;;;;;;;;;29.36;nan;100902.75;5052213;28;20031;-75
2021/08/12 07:54:08;;;;;;;4.97;3.37;;;;;;;30.08;nan;100894.69;5051281;28;19983;-75
2021/08/12 07:56:33;;;;;;;4.30;3.00;;;;;;;30.09;nan;100899.06;5049730;28;20636;-75
2021/08/12 07:58:59;;;;;;;5.82;2.92;;;;;;;30.67;nan;100889.44;5051404;28;20033;-75
2021/08/12 08:01:24;;;;;;;6.03;4.20;;;;;;;30.90;nan;100889.94;5051447;28;20087;-75
2021/08/12 08:03:51;;;;;;;5.35;3.47;;;;;;;31.03;nan;100894.78;5050492;28;20613;-75
2021/08/12 08:06:16;;;;;;;5.05;2.75;;;;;;;30.40;nan;100892.50;5050683;28;20035;-75
2021/08/12 08:08:42;;;;;;;4.03;2.83;;;;;;;30.51;nan;100889.75;5051451;28;20672;-75
2021/08/12 08:11:07;;;;;;;5.63;3.40;;;;;;;30.47;nan;100884.84;5051286;28;20483;-75
2021/08/12 08:13:33;;;;;;;8.32;4.05;;;;;;;30.29;nan;100888.16;5051205;28;20513;-75
2021/08/12 08:15:58;;;;;;;5.05;3.15;;;;;;;29.55;nan;100884.81;5051308;28;20039;-75
2021/08/12 08:18:25;;;;;;;4.20;2.78;;;;;;;29.53;nan;100884.28;5050903;28;20037;-75
2021/08/12 08:20:50;;;;;;;5.80;3.00;;;;;;;30.21;nan;100885.97;5051194;28;20078;-75
2021/08/12 08:23:16;;;;;;;3.83;2.72;;;;;;;30.74;nan;100888.34;5051030;28;20041;-75
2021/08/12 08:25:41;;;;;;;7.25;3.22;;;;;;;31.01;nan;100883.34;5050001;28;20037;-75
2021/08/12 08:28:06;;;;;;;5.70;3.05;;;;;;;31.23;nan;100895.81;5050221;28;20033;-75
2021/08/12 08:30:33;;;;;;;;;;;;;;;31.92;nan;100899.47;5051991;28;20402;-76
2021/08/12 08:32:58;;;;;;;;;;;;;;;32.81;nan;100901.94;5051650;28;19924;-76
2021/08/12 08:35:25;;;;;;;4.20;2.50;;;;;;;33.54;nan;100899.91;5051127;28;19912;-76
2021/08/12 08:37:51;;;;;;;4.78;3.28;;;;;;;33.86;nan;100899.16;5050560;28;20533;-76
2021/08/12 08:40:17;;;;;;;4.28;2.47;;;;;;;33.61;nan;100892.97;5050713;28;20033;-75
2021/08/12 08:42:42;;;;;;;4.55;3.13;;;;;;;33.72;nan;100890.84;5050668;28;20498;-75
2021/08/12 08:45:08;;;;;;;4.57;2.88;;;;;;;34.09;nan;100891.94;5051272;28;20032;-76
2021/08/12 08:47:34;;;;;;;5.22;2.85;;;;;;;34.50;nan;100885.69;5049266;28;20033;-75
2021/08/12 08:50:01;;;;;;;4.30;3.05;;;;;;;35.24;nan;100887.50;5050771;28;20577;-76
2021/08/12 08:52:27;;;;;;;3.70;2.83;;;;;;;35.13;nan;100886.91;5050214;28;20170;-76
2021/08/12 08:54:53;;;;;;;;;;;;;;;35.30;nan;100887.09;5050791;28;20036;-76
2021/08/12 08:57:19;;;;;;;4.07;2.92;;;;;;;35.81;nan;100887.03;5050505;28;19919;-76
2021/08/12 08:59:45;;;;;;;4.63;2.88;;;;;;;35.02;nan;100893.75;5050666;28;20025;-75
2021/08/12 09:02:11;;;;;;;3.65;2.80;;;;;;;35.05;nan;100895.88;5049971;28;20033;-76
2021/08/12 09:04:37;;;;;;;3.45;2.40;;;;;;;35.40;nan;100883.28;5049383;28;20280;-76
2021/08/12 09:07:04;;;;;;;4.85;2.75;;;;;;;35.73;nan;100891.31;5050995;28;20049;-76
2021/08/12 09:09:30;;;;;;;;;;;;;;;35.92;nan;100893.88;5051909;28;20497;-76
2021/08/12 09:11:55;;;;;;;;;;;;;;;35.89;nan;100883.50;5050615;28;19921;-76
2021/08/12 09:14:32;;;;;;;;;;;;;;;35.43;nan;100887.38;5050805;28;19984;-76
2021/08/12 09:16:57;;;;;;;;;;;;;;;35.78;nan;100887.63;5050584;28;19917;-76
2021/08/12 09:19:24;;;;;;;6.80;3.47;;;;;;;35.97;nan;100890.19;5050162;28;19913;-76
2021/08/12 09:21:59;;;;;;;3.15;2.67;;;;;;;35.52;nan;100880.81;5047856;28;20467;-76
2021/08/12 09:24:25;;;;;;;4.20;2.85;;;;;;;35.23;nan;100886.72;5045989;28;20485;-76
2021/08/12 09:26:50;;;;;;;4.75;2.90;;;;;;;34.46;nan;100882.72;5047690;28;20492;-76
2021/08/12 09:29:31;;;;;;;3.88;2.63;;;;;;;34.00;nan;100880.78;5045035;28;20485;-76
2021/08/12 09:32:04;;;;;;;3.47;2.35;;;;;;;33.97;nan;100881.41;5047004;28;20410;-76
2021/08/12 09:34:47;;;;;;;4.47;3.05;;;;;;;34.39;nan;100873.25;5048199;28;20389;-76
2021/08/12 09:37:13;;;;;;;3.77;2.80;;;;;;;33.71;nan;100871.97;5046972;28;20432;-76
2021/08/12 09:39:39;;;;;;;;;;;;;;;33.05;nan;100857.28;5049733;28;20037;-76
2021/08/12 09:42:05;;;;;;;5.03;3.70;;;;;;;33.08;nan;100865.72;5051332;28;19923;-76
2021/08/12 09:44:52;;;;;;;4.10;2.75;;;;;;;32.93;nan;100863.97;5066005;28;20471;-76
2021/08/12 09:47:23;;;;;;;4.50;3.17;;;;;;;32.97;nan;100870.50;5049127;28;20413;-76
2021/08/12 09:49:51;;;;;;;4.43;2.72;;;;;;;32.82;nan;100859.72;5047022;28;20522;-75
2021/08/12 09:52:32;;;;;;;4.47;3.55;;;;;;;32.48;nan;100857.91;5050340;28;20037;-76
2021/08/12 09:55:00;;;;;;;;;;;;;;;32.31;nan;100852.09;5051547;28;20091;-76
2021/08/12 09:57:25;;;;;;;;;;;;;;;32.31;nan;100858.38;5050308;28;20050;-76
2021/08/12 09:59:51;;;;;;;;;;;;;;;31.83;nan;100860.16;5049628;28;20019;-76
2021/08/12 10:02:17;;;;;;;;;;;;;;;31.67;nan;100862.19;5049245;28;19912;-76
2021/08/12 10:04:43;;;;;;;5.35;3.17;;;;;;;31.78;nan;100863.75;5053567;28;19923;-76
2021/08/12 10:07:28;;;;;;;3.13;2.27;;;;;;;31.81;nan;100857.72;5049093;28;20905;-76
2021/08/12 10:09:53;;;;;;;3.47;2.60;;;;;;;32.05;nan;100857.00;5047434;28;20401;-76
2021/08/12 10:12:32;;;;;;;;;;;;;;;32.15;nan;100851.41;5048350;28;20116;-76
2021/08/12 10:14:57;;;;;;;;;;;;;;;32.10;nan;100856.94;5050716;28;20296;-76
2021/08/12 10:17:22;;;;;;;4.13;2.90;;;;;;;32.06;nan;100853.13;5048856;28;19917;-76
2021/08/12 10:19:48;;;;;;;;;;;;;;;31.76;nan;100862.41;5049424;28;20033;-76
2021/08/12 10:22:14;;;;;;;4.60;2.90;;;;;;;31.62;nan;100851.31;5047119;28;19956;-76
2021/08/12 10:24:39;;;;;;;4.43;2.83;;;;;;;31.33;nan;100849.28;5048549;28;20271;-76
2021/08/12 10:27:05;;;;;;;3.33;2.70;;;;;;;31.16;nan;100851.59;5049950;28;20120;-76
2021/08/12 10:29:34;;;;;;;2.90;2.30;;;;;;;31.37;nan;100853.09;5051114;28;20445;-76
2021/08/12 10:32:01;;;;;;;3.33;2.53;;;;;;;31.32;nan;100848.47;5049051;28;20405;-75
2021/08/12 10:34:28;;;;;;;5.13;2.83;;;;;;;31.32;nan;100856.69;5059618;28;20585;-76
2021/08/12 10:36:54;;;;;;;4.97;3.25;;;;;;;31.45;nan;100848.97;5052683;28;20102;-76
2021/08/12 10:39:21;;;;;;;6.03;3.75;;;;;;;31.55;nan;100853.56;5052072;28;20182;-75
2021/08/12 10:41:47;;;;;;;4.13;2.47;;;;;;;31.30;nan;100845.22;5051480;28;20036;-76
2021/08/12 10:44:15;;;;;;;3.13;2.50;;;;;;;31.42;nan;100847.63;5057533;28;20417;-75
2021/08/12 10:46:41;;;;;;;3.10;2.35;;;;;;;31.40;nan;100847.09;5051393;28;20841;-75
2021/08/12 10:49:36;;;;;;;4.80;3.13;;;;;;;31.31;nan;100848.75;5052151;28;20037;-76
2021/08/12 10:52:06;;;;;;;5.82;3.60;;;;;;;31.09;nan;100844.50;5033603;28;20128;-76
2021/08/12 10:54:34;;;;;;;3.58;2.70;;;;;;;30.92;nan;100837.78;5051668;28;20040;-76
2021/08/12 10:57:23;;;;;;;3.50;2.72;;;;;;;31.11;nan;100831.41;5050950;28;20120;-76
2021/08/12 10:59:50;;;;;;;3.83;2.65;;;;;;;31.05;nan;100837.16;5051645;28;20040;-76
2021/08/12 11:02:27;;;;;;;6.40;3.28;;;;;;;30.96;nan;100827.91;5050822;28;20041;-76
2021/08/12 11:04:54;;;;;;;5.20;3.15;;;;;;;31.11;nan;100828.66;5051911;28;20044;-76
2021/08/12 11:07:38;;;;;;;5.38;3.70;;;;;;;31.03;nan;100829.22;5051718;28;20033;-76
2021/08/12 11:10:09;;;;;;;4.88;3.53;;;;;;;31.30;nan;100820.63;5051869;28;20037;-76
2021/08/12 11:12:53;;;;;;;4.47;3.30;;;;;;;31.50;nan;100821.59;5051720;28;20040;-75
2021/08/12 11:15:36;;;;;;;4.95;3.63;;;;;;;31.57;nan;100822.09;5052116;28;20099;-76
2021/08/12 11:18:03;;;;;;;4.07;2.92;;;;;;;31.53;nan;100819.13;5050134;28;20036;-76
2021/08/12 11:20:40;;;;;;;3.60;2.78;;;;;;;31.53;nan;100812.81;5051425;28;20029;-76
2021/08/12 11:23:18;;;;;;;5.75;3.30;;;;;;;31.80;nan;100815.06;5048527;28;20243;-76
2021/08/12 11:25:56;;;;;;;8.13;4.05;;;;;;;31.93;nan;100808.09;5050373;28;20033;-75
2021/08/12 11:28:40;;;;;;;4.85;3.40;;;;;;;31.36;nan;100804.19;5049204;28;20086;-76
2021/08/12 11:31:06;;;;;;;5.35;3.63;;;;;;;31.74;nan;100803.34;5048067;28;20424;-75
2021/08/12 11:33:33;;;;;;;4.72;3.67;;;;;;;31.78;nan;100800.88;5051252;28;20087;-76
2021/08/12 11:36:10;;;;;;;5.82;3.95;;;;;;;31.20;nan;100803.47;5051439;28;20045;-76
2021/08/12 11:38:36;;;;;;;5.20;3.60;;;;;;;31.16;nan;100799.69;5050436;28;20111;-76
2021/08/12 11:41:02;;;;;;;4.95;3.70;;;;;;;31.53;nan;100810.94;5048909;28;20073;-76
2021/08/12 11:43:27;;;;;;;4.75;3.35;;;;;;;31.23;nan;100819.31;5050600;28;20033;-76
2021/08/12 11:45:55;;;;;;;7.15;4.18;;;;;;;31.55;nan;100813.34;5049800;28;20443;-75
2021/08/12 11:48:22;;;;;;;5.57;3.65;;;;;;;31.57;nan;100815.81;5041429;28;20063;-76